Juno — MVZN7 — position and weather

sailwx.info

Track history (hours):
 
Tides and Currents Weather Stations Pressure Air Temp Water Temp Dewpoint Dewpoint Depression Visibility Wind Speed Wind Dir Waves Ship Positions

Juno

Last reported at 2017-Aug-20 11:11 UTC. Time now 2017-Sep-19 20:49 UTC.
Position N 47°28' W 002°42'.
Warning: this ship's position is 30 days out of date.

Length 12 m.

Type: Pleasure craft. MMSI: 235002128.

Date/timePositionNaut miles runAvg speedWind from/ knotsBaromVisibWave heightAir tempDewpointWater temp
2017-Aug-20 11:11N 47°28' W 002°42'7 4.5
2017-Aug-20 09:43N 47°30' W 002°52'1 4.4
2017-Aug-20 09:25N 47°31' W 002°53'2 3.7
2017-Aug-20 09:00N 47°32' W 002°54'0 0.0
2017-Aug-18 15:31N 47°32' W 002°54'1 4.3
2017-Aug-18 15:18N 47°33' W 002°55'1 4.7
2017-Aug-18 15:00N 47°34' W 002°54'2 4.7
2017-Aug-18 14:30N 47°36' W 002°51'4 3.6
2017-Aug-18 13:30N 47°37' W 002°47'2 3.1
2017-Aug-18 13:00N 47°39' W 002°46'0 0.1
2017-Aug-18 08:21N 47°39' W 002°45'0 0.0
2017-Aug-18 07:54N 47°39' W 002°45'0 0.0
2017-Aug-17 16:34N 47°39' W 002°45'0 0.0
2017-Aug-17 16:28N 47°39' W 002°45'0 0.0
2017-Aug-17 15:58N 47°39' W 002°45'0 0.0
2017-Aug-17 15:28N 47°39' W 002°45'0 0.0
2017-Aug-17 14:58N 47°39' W 002°45'0 0.0
2017-Aug-17 14:28N 47°39' W 002°45'0 0.0
2017-Aug-16 16:54N 47°39' W 002°45'0 0.0
2017-Aug-16 16:30N 47°39' W 002°45'0 0.0
2017-Aug-16 15:54N 47°39' W 002°45'0 0.0
2017-Aug-16 15:24N 47°39' W 002°45'0 0.0
2017-Aug-16 15:00N 47°39' W 002°45'0 0.0
2017-Aug-16 14:30N 47°39' W 002°45'0 0.0
2017-Aug-16 14:00N 47°39' W 002°45'0 0.0
2017-Aug-16 13:30N 47°39' W 002°45'0 0.0
2017-Aug-16 12:48N 47°39' W 002°45'0 0.0
2017-Aug-16 12:30N 47°39' W 002°45'0 0.0
2017-Aug-16 12:00N 47°39' W 002°45'0 0.0
2017-Aug-16 11:30N 47°39' W 002°45'0 0.0
2017-Aug-16 10:51N 47°39' W 002°45'0 0.1
2017-Aug-16 10:29N 47°39' W 002°45'1 2.9
2017-Aug-16 09:58N 47°38' W 002°46'2 3.7
2017-Aug-16 09:28N 47°37' W 002°49'2 3.0
2017-Aug-16 08:52N 47°36' W 002°51'0 0.0
2017-Aug-16 08:19N 47°36' W 002°51'0 0.0
2017-Aug-16 07:52N 47°36' W 002°51'0 0.0
2017-Aug-15 19:19N 47°36' W 002°51'0 0.0
2017-Aug-15 18:58N 47°36' W 002°51'0 0.0
2017-Aug-15 18:16N 47°36' W 002°51'0 0.0
2017-Aug-15 17:49N 47°36' W 002°51'0 0.0
2017-Aug-15 17:22N 47°36' W 002°51'0 0.0
2017-Aug-15 12:09N 47°36' W 002°51'0 0.0
2017-Aug-15 11:54N 47°36' W 002°51'0 0.0
2017-Aug-15 11:24N 47°36' W 002°51'0 0.0
2017-Aug-15 10:51N 47°36' W 002°51'0 0.0
2017-Aug-15 10:27N 47°36' W 002°51'0 0.0
2017-Aug-15 09:57N 47°36' W 002°51'0 0.0
2017-Aug-15 09:27N 47°36' W 002°51'0 0.0
2017-Aug-15 08:37N 47°36' W 002°51'0 2.5
2017-Aug-15 08:30N 47°36' W 002°51'4 0.1
2017-Aug-13 11:45N 47°33' W 002°54'1 2.7
2017-Aug-13 11:28N 47°32' W 002°54'3 6.4
2017-Aug-13 11:00N 47°29' W 002°52'3 6.5
2017-Aug-13 10:30N 47°28' W 002°47'3 6.9
2017-Aug-13 10:00N 47°29' W 002°43'4 7.1
2017-Aug-13 09:30N 47°29' W 002°37'3 5.4
2017-Aug-13 08:58N 47°30' W 002°33'  
Track history (hours):
 
Tides and Currents Weather Stations Pressure Air Temp Water Temp Dewpoint Dewpoint Depression Visibility Wind Speed Wind Dir Waves Ship Positions

Juno

Last reported at 2017-Aug-20 11:11 UTC. Time now 2017-Sep-19 20:49 UTC.
Position N 47°28' W 002°42'.
Warning: this ship's position is 30 days out of date.

Length 12 m.

Type: Pleasure craft. MMSI: 235002128.

Date/timePositionNaut miles runAvg speedWind from/ knotsBaromVisibWave heightAir tempDewpointWater temp
2017-Aug-20 11:11N 47°28' W 002°42'7 4.5
2017-Aug-20 09:43N 47°30' W 002°52'1 4.4
2017-Aug-20 09:25N 47°31' W 002°53'2 3.7
2017-Aug-20 09:00N 47°32' W 002°54'0 0.0
2017-Aug-18 15:31N 47°32' W 002°54'1 4.3
2017-Aug-18 15:18N 47°33' W 002°55'1 4.7
2017-Aug-18 15:00N 47°34' W 002°54'2 4.7
2017-Aug-18 14:30N 47°36' W 002°51'4 3.6
2017-Aug-18 13:30N 47°37' W 002°47'2 3.1
2017-Aug-18 13:00N 47°39' W 002°46'0 0.1
2017-Aug-18 08:21N 47°39' W 002°45'0 0.0
2017-Aug-18 07:54N 47°39' W 002°45'0 0.0
2017-Aug-17 16:34N 47°39' W 002°45'0 0.0
2017-Aug-17 16:28N 47°39' W 002°45'0 0.0
2017-Aug-17 15:58N 47°39' W 002°45'0 0.0
2017-Aug-17 15:28N 47°39' W 002°45'0 0.0
2017-Aug-17 14:58N 47°39' W 002°45'0 0.0
2017-Aug-17 14:28N 47°39' W 002°45'0 0.0
2017-Aug-16 16:54N 47°39' W 002°45'0 0.0
2017-Aug-16 16:30N 47°39' W 002°45'0 0.0
2017-Aug-16 15:54N 47°39' W 002°45'0 0.0
2017-Aug-16 15:24N 47°39' W 002°45'0 0.0
2017-Aug-16 15:00N 47°39' W 002°45'0 0.0
2017-Aug-16 14:30N 47°39' W 002°45'0 0.0
2017-Aug-16 14:00N 47°39' W 002°45'0 0.0
2017-Aug-16 13:30N 47°39' W 002°45'0 0.0
2017-Aug-16 12:48N 47°39' W 002°45'0 0.0
2017-Aug-16 12:30N 47°39' W 002°45'0 0.0
2017-Aug-16 12:00N 47°39' W 002°45'0 0.0
2017-Aug-16 11:30N 47°39' W 002°45'0 0.0
2017-Aug-16 10:51N 47°39' W 002°45'0 0.1
2017-Aug-16 10:29N 47°39' W 002°45'1 2.9
2017-Aug-16 09:58N 47°38' W 002°46'2 3.7
2017-Aug-16 09:28N 47°37' W 002°49'2 3.0
2017-Aug-16 08:52N 47°36' W 002°51'0 0.0
2017-Aug-16 08:19N 47°36' W 002°51'0 0.0
2017-Aug-16 07:52N 47°36' W 002°51'0 0.0
2017-Aug-15 19:19N 47°36' W 002°51'0 0.0
2017-Aug-15 18:58N 47°36' W 002°51'0 0.0
2017-Aug-15 18:16N 47°36' W 002°51'0 0.0
2017-Aug-15 17:49N 47°36' W 002°51'0 0.0
2017-Aug-15 17:22N 47°36' W 002°51'0 0.0
2017-Aug-15 12:09N 47°36' W 002°51'0 0.0
2017-Aug-15 11:54N 47°36' W 002°51'0 0.0
2017-Aug-15 11:24N 47°36' W 002°51'0 0.0
2017-Aug-15 10:51N 47°36' W 002°51'0 0.0
2017-Aug-15 10:27N 47°36' W 002°51'0 0.0
2017-Aug-15 09:57N 47°36' W 002°51'0 0.0
2017-Aug-15 09:27N 47°36' W 002°51'0 0.0
2017-Aug-15 08:37N 47°36' W 002°51'0 2.5
2017-Aug-15 08:30N 47°36' W 002°51'4 0.1
2017-Aug-13 11:45N 47°33' W 002°54'1 2.7
2017-Aug-13 11:28N 47°32' W 002°54'3 6.4
2017-Aug-13 11:00N 47°29' W 002°52'3 6.5
2017-Aug-13 10:30N 47°28' W 002°47'3 6.9
2017-Aug-13 10:00N 47°29' W 002°43'4 7.1
2017-Aug-13 09:30N 47°29' W 002°37'3 5.4
2017-Aug-13 08:58N 47°30' W 002°33'  

Dump ship's entire track history